Estación meteorológica de Cercs - La Baells (Berguedà, Cercs)

Consulta los datos en tiempo real de la estación meteorológica de Cercs - La Baells





Hora UTC 18:10
Temperatura 31.5 ºC
Humedad 29.3 %
Presión 1021.0 hPa
Pluja 0.0 mm
Velocidad viento 1.8 km/h
Dirección viento SSE

Datos diarios 2026-09-06



Hora UTC (invierno +1h; verano +2h)
DADES NO VALIDADES
Temperatura (ºC) Humedad (%) Presión (hPa) Velocidad viento (km/h) Precipitación (mm)
Hora UTC Aire Humedad Presión Vel. Dir. Vel. Max Dir. Intent. máx 5 min.
00:05 20.2 71.7 1022.2 1.0 NW 1.0 NW 0.0
00:10 20.2 72.1 1022.2 0.3 NNW 1.0 NW 0.0
00:15 20.2 72.2 1022.2 0.2 NNW 1.0 NW 0.0
00:20 20.0 73.3 1022.2 0.1 WSW 1.0 NW 0.0
00:25 20.0 73.5 1022.2 0.1 SW 1.0 NW 0.0
00:30 20.0 73.1 1022.2 0.0 SW 1.0 NW 0.0
00:35 20.0 73.0 1022.2 0.0 SW 1.0 NW 0.0
00:40 20.1 72.0 1022.2 0.1 NW 1.0 NW 0.0
00:45 20.1 71.7 1022.2 0.1 NNW 1.0 NW 0.0
00:50 19.9 73.1 1022.2 0.1 N 1.0 NW 0.0
00:55 19.8 73.5 1022.2 0.1 N 1.0 NW 0.0
01:00 19.9 72.6 1022.2 0.1 NW 1.0 NW 0.0
01:05 19.9 72.4 1022.2 0.1 NW 1.0 NW 0.0
01:10 19.8 72.5 1022.2 0.1 NNW 1.0 NW 0.0
01:15 19.8 72.5 1022.2 0.1 N 1.0 NW 0.0
01:20 19.8 72.1 1022.2 0.1 NW 1.0 NW 0.0
01:25 19.8 72.1 1022.2 0.1 WNW 1.0 NW 0.0
01:30 19.7 72.2 1022.2 0.0 SSW 1.0 NW 0.0
01:35 19.7 72.2 1022.2 0.0 S 1.0 NW 0.0
01:40 19.8 72.9 1022.2 0.4 WNW 1.0 NW 0.0
01:45 19.8 73.1 1022.2 0.4 NNW 1.0 NW 0.0
01:50 19.7 72.5 1022.2 0.4 NNW 1.0 NW 0.0
01:55 19.7 72.4 1022.2 0.4 NNW 1.0 NW 0.0
01:55 19.7 72.4 1022.2 0.4 NNW 1.0 NW 0.0
01:55 19.7 72.4 1022.2 0.4 NNW 1.0 NW 0.0
02:15 19.4 73.9 1022.2 0.2 NNW 1.0 NW 0.0
02:20 19.2 75.2 1022.2 0.3 N 1.0 NW 0.0
02:25 19.2 75.5 1022.2 0.4 N 1.0 NW 0.0
02:30 19.1 76.1 1022.2 0.2 NNW 1.0 NW 0.0
02:35 19.0 76.3 1022.2 0.1 NNW 1.0 NW 0.0
02:40 19.4 72.1 1022.2 0.4 NNW 1.0 NW 0.0
02:45 19.5 71.2 1022.2 0.4 NNW 1.0 NW 0.0
02:50 19.7 70.4 1022.2 0.9 NNW 1.0 NW 0.0
02:55 19.7 70.1 1022.2 1.0 NNW 1.0 NW 0.0
03:00 19.6 71.3 1022.2 0.7 NNW 1.0 NW 0.0
03:05 19.6 71.6 1022.2 0.7 NNW 1.0 NW 0.0
03:10 19.5 71.7 1022.2 0.3 NNW 1.0 NW 0.0
03:15 19.5 71.8 1022.2 0.3 NNW 1.0 NW 0.0
03:20 19.3 73.0 1022.2 0.6 NNW 1.0 NW 0.0
03:25 19.2 73.3 1022.2 0.7 NNW 1.0 NW 0.0
03:30 18.8 76.4 1022.2 0.5 NNW 1.0 NW 0.0
03:35 18.6 77.2 1022.2 0.4 NNW 1.0 NW 0.0
03:40 19.1 73.0 1022.2 0.7 NNW 1.0 NW 0.0
03:45 19.2 72.0 1022.2 0.7 NNW 1.0 NW 0.0
03:50 19.3 70.4 1022.2 1.1 NNW 1.1 NNW 0.0
03:55 19.4 70.0 1022.2 1.1 NNW 1.1 NNW 0.0
04:00 19.3 73.3 1022.2 0.8 NNW 1.1 NNW 0.0
04:05 19.3 74.1 1022.2 0.7 NNW 1.1 NNW 0.0
04:10 18.9 74.3 1022.2 0.8 NNW 1.1 NNW 0.0
04:15 18.8 74.4 1022.2 0.8 NNW 1.1 NNW 0.0
04:20 18.6 76.9 1022.2 0.3 N 1.1 NNW 0.0
04:25 18.6 77.5 1022.2 0.2 N 1.1 NNW 0.0
04:30 18.3 78.4 1022.2 0.1 ENE 1.1 NNW 0.0
04:35 18.2 78.7 1022.2 0.0 N 1.1 NNW 0.0
04:40 18.1 78.5 1022.2 0.0 ESE 1.1 NNW 0.0
04:45 18.1 78.4 1022.2 0.0 SE 1.1 NNW 0.0
04:50 18.1 79.0 1022.2 0.0 S 1.1 NNW 0.0
04:55 18.1 79.1 1022.2 0.0 SSW 1.1 NNW 0.0
05:00 18.0 78.6 1022.2 0.0 ENE 1.1 NNW 0.0
05:05 18.0 78.4 1022.2 0.0 NE 1.1 NNW 0.0
05:10 18.0 77.5 1022.2 0.0 NE 1.1 NNW 0.0
05:15 18.0 77.4 1022.2 0.0 NE 1.1 NNW 0.0
05:20 18.1 76.1 1022.2 0.2 W 1.1 NNW 0.0
05:25 18.1 75.8 1022.2 0.3 NNW 1.1 NNW 0.0
05:30 18.3 74.5 1022.2 0.1 SSE 1.1 NNW 0.0
05:35 18.4 74.2 1022.2 0.1 ESE 1.1 NNW 0.0
05:40 18.3 73.9 1022.2 0.7 WNW 1.1 NNW 0.0
05:45 18.2 73.8 1022.2 0.9 NNW 1.1 NNW 0.0
05:50 18.1 77.5 1022.2 0.3 NNW 1.1 NNW 0.0
05:55 18.0 78.2 1022.2 0.2 NNW 1.1 NNW 0.0
06:00 17.7 78.4 1022.2 0.1 S 1.1 NNW 0.0
06:00 17.7 78.4 1022.2 0.1 S 1.1 NNW 0.0
06:10 17.8 77.2 1022.2 0.1 SE 1.1 NNW 0.0
06:15 17.8 76.9 1022.2 0.1 ESE 1.1 NNW 0.0
06:20 18.1 75.3 1022.2 0.0 SSE 1.1 NNW 0.0
06:25 18.2 74.9 1022.2 0.0 SSE 1.1 NNW 0.0
06:30 18.4 73.7 1022.2 0.1 ESE 1.1 NNW 0.0
06:35 18.4 73.4 1022.2 0.1 ESE 1.1 NNW 0.0
06:40 19.0 70.8 1022.2 0.2 WNW 1.1 NNW 0.0
06:45 19.1 70.1 1022.2 0.2 NNW 1.1 NNW 0.0
06:50 19.5 68.2 1022.2 0.3 NW 1.1 NNW 0.0
06:55 19.5 67.8 1022.2 0.4 NW 1.1 NNW 0.0
07:00 20.1 65.7 1022.2 0.2 NNW 1.1 NNW 0.0
07:05 20.2 65.2 1022.2 0.1 NNW 1.1 NNW 0.0
07:10 20.6 64.4 1022.2 0.1 W 1.1 NNW 0.0
07:15 20.7 64.3 1022.2 0.1 W 1.1 NNW 0.0
07:20 20.9 64.9 1022.2 0.1 NW 1.1 NNW 0.0
07:25 20.9 65.0 1022.2 0.1 NNW 1.1 NNW 0.0
07:30 21.4 61.2 1022.2 0.2 NNW 1.1 NNW 0.0
07:35 21.5 60.4 1022.2 0.2 NNW 1.1 NNW 0.0
07:40 22.4 56.9 1022.2 0.1 WSW 1.1 NNW 0.0
07:45 22.7 56.0 1022.2 0.1 SW 1.1 NNW 0.0
07:50 23.1 55.4 1022.2 0.2 WNW 1.1 NNW 0.0
07:55 23.2 55.2 1022.2 0.3 NW 1.1 NNW 0.0
08:00 23.6 53.9 1022.2 0.1 SW 1.1 NNW 0.0
08:05 23.8 53.6 1022.2 0.1 S 1.1 NNW 0.0
08:10 23.7 52.4 1022.2 0.5 NW 1.1 NNW 0.0
08:15 23.7 52.2 1022.2 0.6 NNW 1.1 NNW 0.0
08:20 24.3 50.4 1022.2 0.2 SW 1.1 NNW 0.0
08:25 24.5 49.9 1022.2 0.1 SSW 1.1 NNW 0.0
08:30 25.2 47.4 1022.2 0.2 NW 1.1 NNW 0.0
08:35 25.4 46.8 1022.2 0.2 NNW 1.1 NNW 0.0
08:40 25.7 45.6 1022.2 0.2 WSW 1.1 NNW 0.0
08:45 25.8 45.3 1022.2 0.2 SW 1.1 NNW 0.0
08:50 26.1 46.8 1022.2 0.1 SW 1.1 NNW 0.0
08:55 26.2 47.1 1022.2 0.1 SW 1.1 NNW 0.0
09:00 26.5 46.2 1022.2 0.2 SSW 1.1 NNW 0.0
09:05 26.6 46.0 1022.2 0.2 SSW 1.1 NNW 0.0
09:10 26.9 44.5 1022.2 0.2 SSW 1.1 NNW 0.0
09:15 27.0 44.2 1022.2 0.2 SSW 1.1 NNW 0.0
09:20 27.6 43.0 1022.2 0.2 SSW 1.1 NNW 0.0
09:25 27.7 42.7 1022.2 0.1 S 1.1 NNW 0.0
09:30 28.6 40.0 1022.2 0.1 S 1.1 NNW 0.0
09:35 28.8 39.4 1022.2 0.1 S 1.1 NNW 0.0
09:40 29.5 38.0 1022.2 0.6 E 1.1 NNW 0.0
09:45 29.6 37.7 1022.2 0.8 ENE 1.1 NNW 0.0
09:50 30.0 37.1 1022.2 1.4 E 1.4 E 0.0
09:55 30.1 37.0 1022.2 1.6 E 1.6 E 0.0
10:00 30.6 34.7 1022.2 1.8 E 1.8 E 0.0
10:05 30.8 34.1 1022.2 1.9 E 1.9 E 0.0
10:10 30.7 33.6 1022.2 2.1 ENE 2.1 ENE 0.0
10:15 30.7 33.5 1022.2 2.2 ENE 2.2 ENE 0.0
10:20 31.1 33.9 1021.4 1.7 E 2.2 ENE 0.0
10:25 31.2 34.0 1021.2 1.6 E 2.2 ENE 0.0
10:30 31.4 33.5 1021.2 2.0 ENE 2.2 ENE 0.0
10:35 31.5 33.4 1021.2 2.1 ENE 2.2 ENE 0.0
10:40 31.7 33.2 1021.2 2.4 E 2.4 E 0.0
10:45 31.7 33.1 1021.2 2.5 E 2.5 E 0.0
10:50 31.9 32.8 1021.2 2.7 E 2.7 E 0.0
10:55 32.0 32.7 1021.2 2.8 E 2.8 E 0.0
11:00 32.3 32.2 1021.2 1.5 E 2.8 E 0.0
11:05 32.3 32.0 1021.2 1.2 E 2.8 E 0.0
11:10 32.7 31.0 1021.2 1.3 E 2.8 E 0.0
11:15 32.8 30.7 1021.2 1.3 E 2.8 E 0.0
11:20 33.6 29.4 1021.2 1.4 E 2.8 E 0.0
11:25 33.8 29.1 1021.2 1.4 E 2.8 E 0.0
11:30 33.7 28.7 1021.2 1.3 E 2.8 E 0.0
11:35 33.6 28.6 1021.2 1.3 E 2.8 E 0.0
11:40 33.6 28.3 1021.2 1.6 E 2.8 E 0.0
11:45 33.6 28.3 1021.2 1.6 ENE 2.8 E 0.0
11:50 34.5 26.8 1021.2 2.0 E 2.8 E 0.0
11:55 34.7 26.4 1021.2 2.0 E 2.8 E 0.0
12:00 34.7 24.8 1021.2 1.5 E 2.8 E 0.0
12:05 34.7 24.3 1021.2 1.4 ENE 2.8 E 0.0
12:10 35.0 22.4 1020.4 3.2 E 3.2 E 0.0
12:15 35.0 22.0 1020.2 3.6 ESE 3.6 ESE 0.0
12:20 35.9 17.6 1020.2 1.3 ESE 3.6 ESE 0.0
12:25 36.1 16.5 1020.2 0.8 ESE 3.6 ESE 0.0
12:30 36.1 15.4 1020.2 2.5 E 3.6 ESE 0.0
12:35 36.1 15.2 1020.2 3.0 E 3.6 ESE 0.0
12:40 36.5 15.0 1020.2 0.9 SSE 3.6 ESE 0.0
12:45 36.6 15.0 1020.2 0.4 SSE 3.6 ESE 0.0
12:50 36.8 15.0 1020.2 0.4 E 3.6 ESE 0.0
12:55 36.9 14.9 1020.2 0.4 ENE 3.6 ESE 0.0
13:00 37.1 15.1 1020.2 0.4 WSW 3.6 ESE 0.0
13:05 37.1 15.2 1020.2 0.4 W 3.6 ESE 0.0
13:10 37.0 15.0 1020.2 0.7 NW 3.6 ESE 0.0
13:15 37.0 14.9 1020.2 0.8 NW 3.6 ESE 0.0
13:20 36.9 14.7 1020.2 0.7 NNW 3.6 ESE 0.0
13:25 36.9 14.7 1020.2 0.7 NNW 3.6 ESE 0.0
13:30 37.0 14.6 1020.2 0.5 ESE 3.6 ESE 0.0
13:35 37.0 14.6 1020.2 0.4 ENE 3.6 ESE 0.0
13:40 36.8 14.5 1020.2 0.7 W 3.6 ESE 0.0
13:45 36.8 14.5 1020.2 0.7 NW 3.6 ESE 0.0
13:50 36.7 14.6 1020.2 0.6 NNW 3.6 ESE 0.0
13:55 36.6 14.6 1020.2 0.6 NNW 3.6 ESE 0.0
14:00 36.6 14.3 1020.2 0.9 SE 3.6 ESE 0.0
14:05 36.6 14.2 1020.2 1.0 E 3.6 ESE 0.0
14:10 36.5 14.4 1020.2 0.7 SSE 3.6 ESE 0.0
14:15 36.5 14.5 1020.2 0.6 S 3.6 ESE 0.0
14:20 36.9 14.1 1020.2 0.7 S 3.6 ESE 0.0
14:25 37.0 14.0 1020.2 0.7 SSW 3.6 ESE 0.0
14:30 37.1 13.6 1020.2 0.8 SW 3.6 ESE 0.0
14:35 37.1 13.6 1020.2 0.8 WSW 3.6 ESE 0.0
14:40 37.3 13.5 1020.2 1.3 SW 3.6 ESE 0.0
14:45 37.3 13.5 1020.2 1.4 SSW 3.6 ESE 0.0
14:50 37.3 13.4 1020.2 0.8 SSW 3.6 ESE 0.0
14:55 37.4 13.4 1020.2 0.7 SSW 3.6 ESE 0.0
15:00 37.3 13.6 1020.2 1.5 SW 3.6 ESE 0.0
15:05 37.2 13.7 1020.2 1.6 SW 3.6 ESE 0.0
15:10 37.0 13.5 1020.2 1.0 SSW 3.6 ESE 0.0
15:15 36.9 13.4 1020.2 0.9 SSW 3.6 ESE 0.0
15:20 36.3 13.9 1020.2 1.5 SSW 3.6 ESE 0.0
15:25 36.1 14.0 1020.2 1.6 SSW 3.6 ESE 0.0
15:30 35.8 14.9 1020.2 1.4 S 3.6 ESE 0.0
15:35 35.8 15.1 1020.2 1.4 S 3.6 ESE 0.0
15:40 35.8 15.1 1020.2 1.0 SSW 3.6 ESE 0.0
15:45 35.8 15.2 1020.2 0.9 SSW 3.6 ESE 0.0
15:50 35.3 15.0 1020.2 0.5 ESE 3.6 ESE 0.0
15:55 35.2 15.0 1020.2 0.4 E 3.6 ESE 0.0
16:00 35.3 15.0 1020.2 0.7 ENE 3.6 ESE 0.0
16:05 35.3 15.0 1020.2 0.8 ENE 3.6 ESE 0.0
16:10 35.4 14.9 1020.2 0.5 NE 3.6 ESE 0.0
16:15 35.5 14.9 1020.2 0.4 NE 3.6 ESE 0.0
16:20 36.0 14.5 1020.2 0.3 ESE 3.6 ESE 0.0
16:25 36.1 14.4 1020.2 0.3 ESE 3.6 ESE 0.0
16:30 35.4 14.4 1020.2 0.8 ESE 3.6 ESE 0.0
16:35 35.3 14.4 1020.2 0.9 ESE 3.6 ESE 0.0
16:40 34.7 15.3 1020.2 1.5 S 3.6 ESE 0.0
16:45 34.6 15.5 1020.2 1.6 SSW 3.6 ESE 0.0
16:50 35.1 15.5 1020.2 1.5 SSW 3.6 ESE 0.0
16:55 35.3 15.5 1020.2 1.5 SSW 3.6 ESE 0.0
17:00 35.1 15.5 1020.2 2.2 SSW 3.6 ESE 0.0
17:05 35.0 15.5 1020.2 2.4 SSW 3.6 ESE 0.0
17:10 34.4 16.1 1020.2 2.3 SSW 3.6 ESE 0.0
17:15 34.3 16.2 1020.2 2.3 SSW 3.6 ESE 0.0
17:20 33.8 16.9 1020.2 2.1 SSW 3.6 ESE 0.0
17:25 33.7 17.0 1020.2 2.1 SSW 3.6 ESE 0.0
17:30 33.5 16.7 1020.2 2.4 SSW 3.6 ESE 0.0
17:35 33.5 16.6 1020.2 2.5 SSW 3.6 ESE 0.0
17:40 33.0 18.4 1020.2 2.3 S 3.6 ESE 0.0
17:45 32.9 18.8 1020.2 2.3 S 3.6 ESE 0.0
17:50 32.3 22.0 1020.2 2.0 SSE 3.6 ESE 0.0
17:55 32.2 22.8 1020.2 1.9 SE 3.6 ESE 0.0
18:00 31.8 27.4 1020.2 1.8 SE 3.6 ESE 0.0
18:05 31.7 28.5 1020.2 1.7 SE 3.6 ESE 0.0
18:10 31.5 29.3 1021.0 1.8 SSE 3.6 ESE 0.0
Máxima 37.4 79.1 1022.2 3.6 ESE 3.6 ESE 0.0
Mínima 17.7 13.4 1020.2
Total 0.0